Time;durP1;ratioP1;P1;durP2;ratioP2;P2;SDS_P1;SDS_P2;PMS_P1;PMS_P2;Temp;Humidity;BMP_temperature;BMP_pressure;BME280_temperature;BME280_humidity;BME280_pressure;Samples;Min_cycle;Max_cycle;Signal;HPM_P1;HPM_P2
2021/04/14 00:01:32;;;;;;;10.82;8.00;;;1.40;99.90;;;;;;5103548;28;20120;-67
2021/04/14 00:04:06;;;;;;;10.35;7.93;;;1.40;99.90;;;;;;5113750;28;20035;-67
2021/04/14 00:06:34;;;;;;;9.30;8.25;;;1.40;99.90;;;;;;5113184;28;20545;-67
2021/04/14 00:09:04;;;;;;;11.98;7.80;;;1.40;99.90;;;;;;5111923;28;20048;-67
2021/04/14 00:11:36;;;;;;;10.90;7.75;;;1.40;99.90;;;;;;5113300;28;20055;-67
2021/04/14 00:14:05;;;;;;;13.68;8.30;;;1.40;99.90;;;;;;5113078;28;20051;-67
2021/04/14 00:16:32;;;;;;;13.82;8.02;;;1.40;99.90;;;;;;5120684;27;20169;-67
2021/04/14 00:18:59;;;;;;;10.13;7.85;;;1.40;99.90;;;;;;5111144;28;20040;-67
2021/04/14 00:21:27;;;;;;;9.10;7.80;;;1.40;99.90;;;;;;5112955;28;20513;-67
2021/04/14 00:23:57;;;;;;;10.93;8.20;;;1.40;99.90;;;;;;5112847;28;20071;-67
2021/04/14 00:26:24;;;;;;;8.82;7.80;;;1.40;99.90;;;;;;5113878;28;20043;-67
2021/04/14 00:28:51;;;;;;;8.95;8.05;;;1.30;99.90;;;;;;5111653;28;20083;-67
2021/04/14 00:31:19;;;;;;;10.85;8.95;;;1.20;99.90;;;;;;5109703;28;20455;-67
2021/04/14 00:33:46;;;;;;;11.07;8.27;;;1.20;99.90;;;;;;5108682;28;20413;-67
2021/04/14 00:36:13;;;;;;;12.85;8.30;;;1.10;99.90;;;;;;5102912;28;20079;-67
2021/04/14 00:38:40;;;;;;;12.00;8.40;;;1.10;99.90;;;;;;5112376;28;20054;-67
2021/04/14 00:41:15;;;;;;;9.55;8.48;;;1.00;99.90;;;;;;5111998;28;20092;-67
2021/04/14 00:43:42;;;;;;;10.27;8.73;;;1.00;99.90;;;;;;5112090;28;20081;-67
2021/04/14 00:46:09;;;;;;;10.30;7.88;;;0.90;99.90;;;;;;5112204;28;20067;-67
2021/04/14 00:48:36;;;;;;;10.65;8.77;;;0.80;99.90;;;;;;5112499;28;20055;-67
2021/04/14 00:51:06;;;;;;;9.77;7.85;;;0.80;99.90;;;;;;5111797;28;20075;-67
2021/04/14 00:53:36;;;;;;;14.50;8.07;;;0.80;99.90;;;;;;5110103;28;20131;-67
2021/04/14 00:56:04;;;;;;;10.05;8.07;;;0.70;99.90;;;;;;5113440;28;20047;-67
2021/04/14 00:58:31;;;;;;;13.80;9.35;;;0.70;99.90;;;;;;5111864;28;20126;-67
2021/04/14 01:00:58;;;;;;;18.58;9.77;;;0.60;99.90;;;;;;5109805;28;20141;-67
2021/04/14 01:03:33;;;;;;;13.20;9.13;;;0.60;99.90;;;;;;5110624;28;20389;-67
2021/04/14 01:06:05;;;;;;;13.90;8.43;;;0.50;99.90;;;;;;5111695;28;20048;-67
2021/04/14 01:08:32;;;;;;;10.38;7.82;;;0.50;99.90;;;;;;5092118;28;20055;-67
2021/04/14 01:10:59;;;;;;;12.32;7.93;;;0.40;99.90;;;;;;5112404;28;20493;-66
2021/04/14 01:13:26;;;;;;;13.38;7.70;;;0.40;99.90;;;;;;5111974;28;20413;-66
2021/04/14 01:15:53;;;;;;;10.07;7.75;;;0.40;99.90;;;;;;5116302;27;20047;-66
2021/04/14 01:18:34;;;;;;;9.45;7.32;;;0.40;99.90;;;;;;5099921;28;20406;-66
2021/04/14 01:21:04;;;;;;;9.93;7.95;;;0.40;99.90;;;;;;5107896;28;20128;-66
2021/04/14 01:23:31;;;;;;;9.65;7.30;;;0.40;99.90;;;;;;5110030;28;20498;-66
2021/04/14 01:25:59;;;;;;;10.50;7.38;;;0.40;99.90;;;;;;5110994;28;20036;-66
2021/04/14 01:28:29;;;;;;;8.80;7.30;;;0.40;99.90;;;;;;5110529;28;20043;-66
2021/04/14 01:30:58;;;;;;;11.35;7.35;;;0.30;99.90;;;;;;5092254;28;20123;-66
2021/04/14 01:33:28;;;;;;;12.20;7.90;;;0.30;99.90;;;;;;5108894;28;20055;-66
2021/04/14 01:35:56;;;;;;;11.63;7.82;;;0.30;99.90;;;;;;5112025;28;20082;-67
2021/04/14 01:38:23;;;;;;;11.77;7.75;;;0.20;99.90;;;;;;5111386;28;20409;-66
2021/04/14 01:40:50;;;;;;;8.23;7.40;;;0.20;99.90;;;;;;5112519;28;20047;-66
2021/04/14 01:43:17;;;;;;;10.88;7.65;;;0.20;99.90;;;;;;5110539;28;20055;-66
2021/04/14 01:45:46;;;;;;;10.25;7.88;;;0.20;99.90;;;;;;5106413;28;20090;-66
2021/04/14 01:48:14;;;;;;;10.05;7.53;;;0.20;99.90;;;;;;5102185;28;20047;-66
2021/04/14 01:50:41;;;;;;;11.80;7.72;;;0.20;99.90;;;;;;5109979;28;20123;-66
2021/04/14 01:53:11;;;;;;;10.90;8.10;;;0.20;99.90;;;;;;5110686;28;20123;-66
2021/04/14 01:55:39;;;;;;;11.10;7.90;;;0.10;99.90;;;;;;5101943;28;20099;-66
2021/04/14 01:58:08;;;;;;;15.95;7.35;;;0.10;99.90;;;;;;5110065;28;20402;-66
2021/04/14 02:00:44;;;;;;;10.70;7.07;;;0.10;99.90;;;;;;5107158;28;20502;-66
2021/04/14 02:03:12;;;;;;;9.30;7.32;;;0.00;99.90;;;;;;5097374;28;20079;-66
2021/04/14 02:05:39;;;;;;;11.60;7.22;;;0.00;99.90;;;;;;5105608;28;20048;-66
2021/04/14 02:08:07;;;;;;;11.25;7.22;;;0.00;99.90;;;;;;5103047;28;20462;-66
2021/04/14 02:10:34;;;;;;;12.30;7.75;;;0.00;99.90;;;;;;5104944;28;20052;-66
2021/04/14 02:13:05;;;;;;;9.43;7.60;;;-0.10;99.90;;;;;;5110149;28;20052;-66
2021/04/14 02:15:34;;;;;;;11.85;8.10;;;-0.10;99.90;;;;;;5121610;27;20413;-66
2021/04/14 02:18:02;;;;;;;10.57;8.45;;;-0.10;99.90;;;;;;5109868;28;20170;-66
2021/04/14 02:20:29;;;;;;;16.90;7.97;;;-0.10;99.90;;;;;;5110398;28;20130;-66
2021/04/14 02:22:56;;;;;;;10.00;7.47;;;-0.10;99.90;;;;;;5111427;28;20123;-66
2021/04/14 02:25:25;;;;;;;9.30;7.03;;;-0.10;99.90;;;;;;5110625;28;20123;-67
2021/04/14 02:27:52;;;;;;;9.45;7.38;;;-0.10;99.90;;;;;;5109786;28;20543;-66
2021/04/14 02:30:28;;;;;;;10.32;7.18;;;-0.20;99.90;;;;;;5109736;28;20340;-66
2021/04/14 02:32:55;;;;;;;12.95;7.18;;;-0.20;99.90;;;;;;5090848;28;20073;-66
2021/04/14 02:35:26;;;;;;;10.70;7.57;;;-0.20;99.90;;;;;;5111413;28;20404;-66
2021/04/14 02:37:53;;;;;;;10.70;7.32;;;-0.20;99.90;;;;;;5109690;28;20466;-66
2021/04/14 02:40:21;;;;;;;9.32;7.10;;;-0.20;99.90;;;;;;5109604;28;20516;-67
2021/04/14 02:42:49;;;;;;;9.43;6.55;;;-0.20;99.90;;;;;;5110247;28;20554;-66
2021/04/14 02:45:21;;;;;;;10.23;7.10;;;-0.30;99.90;;;;;;5110954;28;20047;-66
2021/04/14 02:47:48;;;;;;;10.52;7.43;;;-0.30;99.90;;;;;;5109578;28;20554;-66
2021/04/14 02:50:15;;;;;;;14.13;7.28;;;-0.30;99.90;;;;;;5109354;28;20043;-66
2021/04/14 02:52:52;;;;;;;10.65;7.53;;;-0.30;99.90;;;;;;5100458;28;20077;-65
2021/04/14 02:55:22;;;;;;;11.00;7.80;;;-0.30;99.90;;;;;;5105526;28;20079;-65
2021/04/14 02:57:49;;;;;;;9.90;7.10;;;-0.40;99.90;;;;;;5109746;28;20047;-67
2021/04/14 03:00:18;;;;;;;11.60;7.32;;;-0.40;99.90;;;;;;5109453;28;20051;-65
2021/04/14 03:02:44;;;;;;;9.90;6.93;;;-0.40;99.90;;;;;;5110524;28;20130;-66
2021/04/14 03:05:13;;;;;;;10.82;6.65;;;-0.40;99.90;;;;;;5114176;28;20474;-65
2021/04/14 03:07:41;;;;;;;12.45;7.05;;;-0.40;99.90;;;;;;5108470;28;20044;-65
2021/04/14 03:10:09;;;;;;;8.68;6.60;;;-0.50;99.90;;;;;;5088958;28;20158;-66
2021/04/14 03:12:49;;;;;;;12.02;7.10;;;-0.50;99.90;;;;;;5110778;28;20258;-66
2021/04/14 03:15:18;;;;;;;10.02;6.35;;;-0.50;99.90;;;;;;5105277;28;20112;-66
2021/04/14 03:17:45;;;;;;;10.07;6.70;;;-0.50;99.90;;;;;;5113122;28;20058;-66
2021/04/14 03:20:12;;;;;;;12.35;7.10;;;-0.50;99.90;;;;;;5114100;28;20043;-66
2021/04/14 03:22:39;;;;;;;12.68;7.20;;;-0.50;99.90;;;;;;5107987;28;20534;-66
2021/04/14 03:25:07;;;;;;;8.65;7.38;;;-0.50;99.90;;;;;;5114577;28;20051;-66
2021/04/14 03:27:36;;;;;;;11.68;7.50;;;-0.60;99.90;;;;;;5110172;28;20080;-66
2021/04/14 03:30:05;;;;;;;8.90;6.50;;;-0.60;99.90;;;;;;5100928;28;20131;-66
2021/04/14 03:32:32;;;;;;;10.88;7.43;;;-0.60;99.90;;;;;;5113962;28;20509;-66
2021/04/14 03:35:00;;;;;;;13.35;7.30;;;-0.60;99.90;;;;;;5113643;28;20163;-66
2021/04/14 03:37:27;;;;;;;9.88;7.20;;;-0.60;99.90;;;;;;5113013;28;20467;-66
2021/04/14 03:39:54;;;;;;;10.48;6.75;;;-0.60;99.90;;;;;;5113878;28;20522;-66
2021/04/14 03:42:20;;;;;;;12.30;8.10;;;-0.70;99.90;;;;;;5113608;28;20451;-66
2021/04/14 03:44:51;;;;;;;10.30;7.32;;;-0.70;99.90;;;;;;5112534;28;20131;-66
2021/04/14 03:47:19;;;;;;;11.00;7.75;;;-0.80;99.90;;;;;;5110542;28;20050;-66
2021/04/14 03:49:47;;;;;;;9.85;7.53;;;-0.80;99.90;;;;;;5110043;28;20048;-66
2021/04/14 03:52:14;;;;;;;12.40;7.53;;;-0.80;99.90;;;;;;5110722;28;20126;-66
2021/04/14 03:54:40;;;;;;;11.25;7.45;;;-0.80;99.90;;;;;;5112420;28;20072;-66
2021/04/14 03:57:07;;;;;;;13.60;8.52;;;-0.80;99.90;;;;;;5113424;28;20135;-66
2021/04/14 03:59:34;;;;;;;13.05;8.00;;;-0.80;99.90;;;;;;5112194;28;20101;-66
2021/04/14 04:02:01;;;;;;;11.70;7.40;;;-0.80;99.90;;;;;;5106915;28;20047;-66
2021/04/14 04:04:28;;;;;;;13.00;7.35;;;-0.90;99.90;;;;;;5113130;28;20397;-66
2021/04/14 04:06:55;;;;;;;14.55;8.70;;;-0.90;99.90;;;;;;5104443;28;20139;-66
2021/04/14 04:09:21;;;;;;;10.55;8.70;;;-0.90;99.90;;;;;;5111557;28;20378;-66
2021/04/14 04:11:48;;;;;;;10.40;7.50;;;-0.90;99.90;;;;;;5111768;28;20101;-66
2021/04/14 04:14:16;;;;;;;10.15;7.05;;;-0.90;99.90;;;;;;5113246;28;20071;-66
2021/04/14 04:16:50;;;;;;;9.82;7.45;;;-0.90;99.90;;;;;;5110654;27;20063;-66
2021/04/14 04:19:17;;;;;;;9.30;7.32;;;-0.90;99.90;;;;;;5112376;28;20100;-66
2021/04/14 04:21:44;;;;;;;11.27;7.70;;;-0.90;99.90;;;;;;5112190;28;20557;-66
2021/04/14 04:24:11;;;;;;;12.05;7.38;;;-0.90;99.90;;;;;;5113413;28;20119;-66
2021/04/14 04:26:38;;;;;;;15.43;9.15;;;-0.90;99.90;;;;;;5112808;28;20559;-66
2021/04/14 04:29:05;;;;;;;12.25;8.10;;;-0.90;99.90;;;;;;5113422;28;20117;-66
2021/04/14 04:31:32;;;;;;;10.98;7.78;;;-0.90;99.90;;;;;;5107760;28;20056;-66
2021/04/14 04:33:59;;;;;;;9.88;7.82;;;-0.90;99.90;;;;;;5113084;28;20074;-66
2021/04/14 04:36:26;;;;;;;12.68;7.85;;;-0.90;99.90;;;;;;5112134;28;20100;-66
2021/04/14 04:38:53;;;;;;;9.60;6.85;;;-0.90;99.90;;;;;;5113958;28;20047;-66
2021/04/14 04:41:28;;;;;;;10.70;7.43;;;-0.80;99.90;;;;;;5111935;28;20069;-66
2021/04/14 04:43:55;;;;;;;9.70;6.88;;;-0.90;99.90;;;;;;5113040;28;20051;-66
2021/04/14 04:46:22;;;;;;;11.77;7.53;;;-0.80;99.90;;;;;;5108454;27;20036;-66
2021/04/14 04:48:49;;;;;;;10.60;7.28;;;-0.80;99.90;;;;;;5110521;28;20198;-66
2021/04/14 04:51:16;;;;;;;11.70;7.68;;;-0.80;99.90;;;;;;5103522;27;20464;-66
2021/04/14 04:53:43;;;;;;;13.75;7.30;;;-0.70;99.90;;;;;;5107217;28;20062;-66
2021/04/14 04:56:10;;;;;;;10.82;7.28;;;-0.70;99.90;;;;;;5100086;28;20047;-66
2021/04/14 04:58:37;;;;;;;10.35;7.82;;;-0.70;99.90;;;;;;5106289;28;20493;-66
2021/04/14 05:01:05;;;;;;;10.60;7.30;;;-0.60;99.90;;;;;;5105584;28;20430;-66
2021/04/14 05:03:52;;;;;;;14.10;8.00;;;-0.50;99.90;;;;;;5100970;28;20080;-66
2021/04/14 05:06:20;;;;;;;13.10;8.20;;;-0.50;99.90;;;;;;5112869;28;20093;-66
2021/04/14 05:08:47;;;;;;;18.95;10.63;;;-0.40;99.90;;;;;;5100625;28;20055;-66
2021/04/14 05:11:14;;;;;;;14.63;8.40;;;-0.40;99.90;;;;;;5106319;28;20039;-66
2021/04/14 05:13:42;;;;;;;10.07;7.55;;;-0.30;99.90;;;;;;5095437;28;20166;-65
2021/04/14 05:16:09;;;;;;;13.85;8.07;;;-0.20;99.90;;;;;;5117902;27;20051;-65
2021/04/14 05:18:36;;;;;;;17.35;10.32;;;-0.20;99.90;;;;;;5112923;28;20447;-66
2021/04/14 05:21:03;;;;;;;13.73;9.50;;;-0.10;99.90;;;;;;5106371;28;20058;-67
2021/04/14 05:23:30;;;;;;;11.70;7.90;;;-0.10;99.90;;;;;;5111430;28;20115;-66
2021/04/14 05:25:57;;;;;;;10.80;8.13;;;-0.10;99.90;;;;;;5110668;28;20075;-66
2021/04/14 05:28:27;;;;;;;13.23;8.23;;;-0.10;99.90;;;;;;5112000;28;20371;-66
2021/04/14 05:30:55;;;;;;;12.18;8.57;;;-0.10;99.90;;;;;;5106447;28;20127;-66
2021/04/14 05:33:23;;;;;;;12.57;8.13;;;-0.10;99.90;;;;;;5107875;28;20142;-66
2021/04/14 05:35:52;;;;;;;13.48;8.35;;;0.00;99.90;;;;;;5110590;28;20036;-66
2021/04/14 05:38:25;;;;;;;13.10;8.25;;;0.10;99.90;;;;;;5110914;28;20048;-66
2021/04/14 05:40:53;;;;;;;12.57;7.32;;;0.20;99.90;;;;;;5112073;28;20468;-66
2021/04/14 05:43:31;;;;;;;11.68;7.40;;;0.30;99.90;;;;;;5111536;28;20390;-66
2021/04/14 05:46:03;;;;;;;10.15;7.57;;;0.30;99.90;;;;;;5115094;28;20051;-67
2021/04/14 05:48:31;;;;;;;8.77;6.80;;;0.40;99.90;;;;;;5111718;28;20138;-67
2021/04/14 05:51:04;;;;;;;10.93;7.43;;;0.50;99.90;;;;;;5110787;28;20039;-67
2021/04/14 05:53:33;;;;;;;12.02;7.80;;;0.50;99.90;;;;;;5112125;28;20051;-67
2021/04/14 05:56:03;;;;;;;12.55;7.95;;;0.60;99.90;;;;;;5098094;28;20081;-66
2021/04/14 05:58:30;;;;;;;9.68;7.40;;;0.60;99.90;;;;;;5105573;28;20047;-66
2021/04/14 06:00:57;;;;;;;10.93;7.68;;;0.60;99.90;;;;;;5096057;28;20518;-65
2021/04/14 06:03:24;;;;;;;12.07;7.50;;;0.60;99.90;;;;;;5097772;28;20060;-66
2021/04/14 06:05:55;;;;;;;15.18;8.88;;;0.70;99.90;;;;;;5090004;28;20048;-65
2021/04/14 06:08:25;;;;;;;9.57;7.65;;;0.70;99.90;;;;;;5094699;28;20046;-65
2021/04/14 06:10:55;;;;;;;10.68;8.40;;;0.80;99.90;;;;;;5105645;28;20104;-66
2021/04/14 06:13:31;;;;;;;10.88;7.85;;;0.90;99.90;;;;;;5112211;28;20040;-65
2021/04/14 06:16:03;;;;;;;12.00;7.65;;;0.90;99.90;;;;;;5112883;28;21435;-66
2021/04/14 06:18:43;;;;;;;10.38;8.63;;;1.00;99.90;;;;;;5095521;28;20055;-66
2021/04/14 06:21:10;;;;;;;9.52;8.10;;;1.10;99.90;;;;;;5111290;28;20096;-66
2021/04/14 06:23:37;;;;;;;10.93;8.43;;;1.10;99.90;;;;;;5111636;28;20044;-66
2021/04/14 06:26:26;;;;;;;12.15;9.13;;;1.20;99.90;;;;;;5109866;28;20043;-66
2021/04/14 06:28:54;;;;;;;12.25;9.25;;;1.30;99.90;;;;;;5110045;28;20054;-66
2021/04/14 06:31:27;;;;;;;14.68;8.13;;;1.30;99.90;;;;;;5105601;28;20126;-67
2021/04/14 06:33:54;;;;;;;14.68;9.25;;;1.40;99.90;;;;;;5109334;28;20047;-70
2021/04/14 06:36:23;;;;;;;13.27;8.70;;;1.40;99.90;;;;;;5106711;28;20056;-70
2021/04/14 06:38:52;;;;;;;11.88;8.07;;;1.40;99.90;;;;;;5109867;28;20039;-69
2021/04/14 06:41:49;;;;;;;13.15;8.40;;;1.50;99.90;;;;;;5111153;28;20052;-69
2021/04/14 06:44:57;;;;;;;15.38;8.68;;;1.50;99.90;;;;;;5099795;28;20040;-69
2021/04/14 06:47:27;;;;;;;12.43;9.20;;;1.50;99.90;;;;;;5108655;28;20063;-69
2021/04/14 06:50:17;;;;;;;16.15;8.80;;;1.50;99.90;;;;;;5108660;28;20058;-69
2021/04/14 06:52:58;;;;;;;13.85;8.80;;;1.60;99.90;;;;;;5049309;28;20053;-69
2021/04/14 06:55:38;;;;;;;14.48;8.70;;;1.70;99.90;;;;;;5048095;28;20053;-69
2021/04/14 06:58:18;;;;;;;13.65;9.13;;;1.80;99.90;;;;;;5047743;28;20392;-69
2021/04/14 07:00:59;;;;;;;16.60;9.73;;;1.90;99.90;;;;;;5047030;28;20033;-69
2021/04/14 07:03:40;;;;;;;21.00;9.80;;;2.00;99.90;;;;;;5044496;28;20400;-69
2021/04/14 07:06:13;;;;;;;14.55;8.52;;;2.10;99.90;;;;;;5030914;28;20036;-69
2021/04/14 07:09:03;;;;;;;;;;;2.30;99.90;;;;;;5048590;28;20049;-69
2021/04/14 07:11:30;;;;;;;12.50;8.60;;;2.40;99.90;;;;;;5047130;28;19946;-69
2021/04/14 07:13:58;;;;;;;12.48;7.22;;;2.50;99.90;;;;;;5048781;28;20057;-69
2021/04/14 07:16:37;;;;;;;14.85;8.15;;;2.60;99.90;;;;;;5048743;28;20064;-69
2021/04/14 07:19:50;;;;;;;11.75;7.75;;;2.70;99.90;;;;;;5048717;28;20566;-69
2021/04/14 07:22:35;;;;;;;10.45;8.27;;;2.90;99.90;;;;;;5025639;28;20064;-69
2021/04/14 07:25:33;;;;;;;9.65;7.13;;;3.00;99.90;;;;;;5045543;28;20519;-69
2021/04/14 07:28:06;;;;;;;11.75;6.65;;;3.10;99.90;;;;;;5001794;28;20050;-69
2021/04/14 07:31:08;;;;;;;11.60;7.03;;;3.30;99.90;;;;;;5032826;28;20380;-69
2021/04/14 07:33:49;;;;;;;13.10;7.35;;;3.40;99.90;;;;;;5044070;28;20049;-69
2021/04/14 07:36:23;;;;;;;12.77;7.30;;;3.30;99.90;;;;;;5045161;28;20056;-69
2021/04/14 07:38:56;;;;;;;11.15;7.38;;;3.40;99.90;;;;;;5046756;28;20114;-69
2021/04/14 07:41:36;;;;;;;11.00;7.53;;;3.60;99.90;;;;;;5040888;28;20103;-69
2021/04/14 07:44:17;;;;;;;9.32;7.15;;;3.70;99.90;;;;;;5045346;28;20086;-69
2021/04/14 07:46:54;;;;;;;15.15;8.25;;;3.80;99.90;;;;;;5044922;28;20052;-69
2021/04/14 07:49:24;;;;;;;9.52;7.53;;;4.00;99.90;;;;;;5046381;28;20057;-70
2021/04/14 07:51:51;;;;;;;11.73;7.43;;;4.10;99.90;;;;;;5049342;28;20106;-70
2021/04/14 07:54:20;;;;;;;12.23;7.97;;;4.10;99.90;;;;;;5049395;28;20141;-69
2021/04/14 07:56:56;;;;;;;9.70;7.15;;;4.20;99.90;;;;;;5046923;28;20514;-69
2021/04/14 07:59:26;;;;;;;13.88;7.65;;;4.30;99.90;;;;;;5047902;28;20568;-69
2021/04/14 08:01:58;;;;;;;10.77;7.60;;;4.40;99.90;;;;;;5048909;28;20083;-70
2021/04/14 08:04:38;;;;;;;14.55;7.95;;;4.50;99.90;;;;;;5062189;28;20130;-70
2021/04/14 08:07:10;;;;;;;12.45;7.70;;;4.60;99.90;;;;;;5113036;28;20044;-69
2021/04/14 08:09:55;;;;;;;11.07;7.93;;;4.70;99.90;;;;;;5112937;28;20134;-70
2021/04/14 08:12:28;;;;;;;9.68;7.65;;;4.80;99.90;;;;;;5107498;28;20083;-69
2021/04/14 08:15:17;;;;;;;9.32;8.30;;;5.00;99.90;;;;;;5117475;27;20051;-69
2021/04/14 08:17:52;;;;;;;9.88;7.72;;;5.10;99.90;;;;;;5111955;28;20043;-70
2021/04/14 08:20:35;;;;;;;12.80;7.60;;;5.10;99.90;;;;;;5113123;28;20132;-69
2021/04/14 08:23:18;;;;;;;9.88;6.95;;;5.10;99.90;;;;;;5108824;28;20078;-70
2021/04/14 08:25:51;;;;;;;11.55;8.00;;;5.40;99.90;;;;;;5112139;28;20056;-69
2021/04/14 08:28:47;;;;;;;10.95;7.60;;;5.60;99.90;;;;;;5111373;28;20047;-70
2021/04/14 08:31:45;;;;;;;10.23;8.05;;;5.70;99.90;;;;;;5112696;28;20101;-69
2021/04/14 08:34:15;;;;;;;9.45;8.07;;;5.70;99.90;;;;;;5112554;28;20147;-69
2021/04/14 08:36:55;;;;;;;11.20;7.93;;;5.80;99.90;;;;;;5107839;28;20467;-69
2021/04/14 08:39:39;;;;;;;9.88;8.02;;;5.90;99.90;;;;;;5090381;28;20047;-70
2021/04/14 08:42:09;;;;;;;10.65;7.90;;;6.20;99.90;;;;;;5109260;28;20122;-69
2021/04/14 08:44:37;;;;;;;10.77;8.27;;;6.30;99.90;;;;;;5113696;28;20497;-68
2021/04/14 08:47:16;;;;;;;10.38;7.72;;;6.40;99.90;;;;;;5110753;28;20108;-68
2021/04/14 08:49:46;;;;;;;14.68;7.80;;;6.50;99.90;;;;;;5100491;28;20793;-68
2021/04/14 08:52:42;;;;;;;11.25;8.15;;;6.90;99.90;;;;;;5113029;28;20067;-67
2021/04/14 08:55:11;;;;;;;8.85;7.80;;;7.50;99.90;;;;;;5107392;28;20104;-68
2021/04/14 08:57:39;;;;;;;11.40;8.52;;;8.00;99.90;;;;;;5110399;28;20047;-68
2021/04/14 09:00:08;;;;;;;11.40;7.90;;;8.50;99.90;;;;;;5112296;28;20051;-68
2021/04/14 09:02:39;;;;;;;8.40;7.40;;;8.90;99.90;;;;;;5110676;28;20039;-68
2021/04/14 09:05:10;;;;;;;9.07;8.10;;;9.30;99.90;;;;;;5112421;28;20054;-68
2021/04/14 09:07:38;;;;;;;9.95;7.80;;;9.70;99.90;;;;;;5113156;28;20039;-68
2021/04/14 09:10:09;;;;;;;9.27;8.35;;;9.90;99.90;;;;;;5103018;28;20451;-68
2021/04/14 09:12:43;;;;;;;8.48;7.68;;;10.20;99.90;;;;;;5110471;28;20574;-70
2021/04/14 09:15:12;;;;;;;8.82;8.00;;;10.20;99.90;;;;;;5113284;27;20055;-68
2021/04/14 09:17:41;;;;;;;10.63;8.15;;;9.70;99.90;;;;;;5105741;28;20067;-68
2021/04/14 09:20:20;;;;;;;12.88;9.77;;;9.00;99.90;;;;;;5112833;28;20444;-68
2021/04/14 09:23:01;;;;;;;10.82;7.78;;;8.70;99.90;;;;;;5110262;28;20040;-68
2021/04/14 09:25:44;;;;;;;8.65;7.80;;;8.20;99.90;;;;;;5110996;28;20101;-68
2021/04/14 09:28:36;;;;;;;10.85;7.75;;;8.20;99.90;;;;;;5102454;28;20040;-68
2021/04/14 09:31:08;;;;;;;9.20;8.10;;;8.40;99.90;;;;;;5111279;28;20047;-68
2021/04/14 09:33:42;;;;;;;8.55;7.75;;;8.60;99.90;;;;;;5110157;28;20346;-69
2021/04/14 09:36:12;;;;;;;9.38;8.00;;;8.60;99.90;;;;;;5107200;28;20406;-68
2021/04/14 09:38:50;;;;;;;10.35;7.38;;;8.40;99.90;;;;;;5110689;28;20043;-68
2021/04/14 09:41:23;;;;;;;11.40;7.78;;;8.10;99.90;;;;;;5117464;27;20036;-69
2021/04/14 09:43:56;;;;;;;11.35;7.85;;;8.10;99.90;;;;;;5108454;28;20056;-69
2021/04/14 09:46:31;;;;;;;;;;;8.40;99.90;;;;;;5108828;28;20067;-69
2021/04/14 09:49:13;;;;;;;10.85;8.27;;;8.50;99.90;;;;;;5107017;28;20405;-69
2021/04/14 09:51:59;;;;;;;10.23;7.57;;;8.60;99.90;;;;;;5109879;28;20066;-69
2021/04/14 09:54:30;;;;;;;10.52;8.45;;;8.80;99.90;;;;;;5089636;28;20039;-70
2021/04/14 09:56:59;;;;;;;9.10;7.88;;;9.50;99.90;;;;;;5103482;28;20140;-69
2021/04/14 09:59:43;;;;;;;8.95;8.18;;;9.60;99.90;;;;;;5110645;28;20134;-69
2021/04/14 10:02:17;;;;;;;8.85;8.15;;;9.30;99.90;;;;;;5110163;28;20048;-69
2021/04/14 10:04:49;;;;;;;9.73;8.82;;;9.30;99.90;;;;;;5104842;28;20044;-70
2021/04/14 10:07:17;;;;;;;9.50;8.30;;;9.20;99.90;;;;;;5105179;28;20134;-69
2021/04/14 10:09:45;;;;;;;8.73;7.88;;;9.10;99.90;;;;;;5108449;28;20566;-70
2021/04/14 10:12:25;;;;;;;10.68;8.40;;;9.10;99.90;;;;;;5109430;28;20143;-68
2021/04/14 10:14:54;;;;;;;9.57;8.68;;;8.70;99.90;;;;;;5115787;27;20134;-68
2021/04/14 10:17:27;;;;;;;11.15;10.18;;;8.70;99.90;;;;;;5115174;27;20052;-68
2021/04/14 10:20:00;;;;;;;10.40;9.50;;;8.80;99.90;;;;;;5111199;28;20441;-69
2021/04/14 10:22:32;;;;;;;10.05;9.10;;;8.90;99.90;;;;;;5109926;28;20055;-69
2021/04/14 10:25:07;;;;;;;8.98;8.10;;;8.80;99.90;;;;;;5109767;28;20059;-69
2021/04/14 10:27:35;;;;;;;9.95;9.02;;;8.40;99.90;;;;;;5107827;28;20043;-71
2021/04/14 10:30:08;;;;;;;9.88;8.90;;;8.40;99.90;;;;;;5110665;28;20708;-69
2021/04/14 10:32:35;;;;;;;9.77;8.95;;;8.40;99.90;;;;;;5109201;28;20054;-70
2021/04/14 10:35:13;;;;;;;9.63;8.82;;;8.50;99.90;;;;;;5110696;28;20055;-70
2021/04/14 10:37:47;;;;;;;9.93;9.00;;;8.20;99.90;;;;;;5107666;28;20047;-70
2021/04/14 10:40:20;;;;;;;10.48;8.90;;;8.40;99.90;;;;;;5109595;28;20075;-69
2021/04/14 10:42:49;;;;;;;9.68;8.77;;;8.60;99.90;;;;;;5109779;28;20047;-69
2021/04/14 10:45:19;;;;;;;10.38;9.40;;;8.70;99.90;;;;;;5109281;28;20521;-69
2021/04/14 10:47:49;;;;;;;10.48;9.38;;;8.80;99.90;;;;;;5110657;28;20516;-68
2021/04/14 10:50:19;;;;;;;9.82;8.93;;;9.00;99.90;;;;;;5109151;28;20071;-69
2021/04/14 10:52:51;;;;;;;9.52;8.63;;;9.20;99.90;;;;;;5103942;28;20052;-69
2021/04/14 10:55:23;;;;;;;9.93;9.00;;;9.40;99.90;;;;;;5104432;28;20134;-69
2021/04/14 10:57:56;;;;;;;;;;;9.70;99.90;;;;;;5109245;28;20058;-69
2021/04/14 11:00:31;;;;;;;10.07;9.07;;;10.00;99.90;;;;;;5110501;28;19928;-68
2021/04/14 11:03:13;;;;;;;8.75;8.00;;;10.20;98.00;;;;;;5108769;28;20127;-69
2021/04/14 11:05:56;;;;;;;9.55;8.85;;;10.20;97.90;;;;;;5110205;28;20051;-68
2021/04/14 11:08:27;;;;;;;9.07;8.40;;;10.30;97.50;;;;;;5108635;28;20059;-68
2021/04/14 11:10:58;;;;;;;9.57;8.77;;;10.50;97.30;;;;;;5109907;28;20052;-68
2021/04/14 11:13:28;;;;;;;9.80;8.75;;;10.60;97.00;;;;;;5109737;28;20097;-69
2021/04/14 11:15:55;;;;;;;10.75;9.00;;;10.80;97.00;;;;;;5117895;28;20171;-69
2021/04/14 11:18:37;;;;;;;9.18;8.38;;;10.80;95.10;;;;;;5109503;28;20052;-69
2021/04/14 11:23:35;;;;;;;9.80;8.80;;;10.50;96.50;;;;;;5110280;28;20436;-69
2021/04/14 11:26:20;;;;;;;10.07;9.27;;;10.70;96.60;;;;;;5114945;28;20048;-69
2021/04/14 11:28:55;;;;;;;9.50;8.70;;;10.80;96.20;;;;;;5106696;28;20055;-69
2021/04/14 11:31:43;;;;;;;10.05;9.05;;;11.10;94.70;;;;;;5111530;28;20510;-69
2021/04/14 11:34:23;;;;;;;9.13;8.40;;;11.20;93.80;;;;;;5098914;28;20056;-69
2021/04/14 11:37:03;;;;;;;9.18;8.45;;;11.40;93.90;;;;;;5113597;28;20136;-69
2021/04/14 11:39:48;;;;;;;9.75;8.90;;;11.40;93.00;;;;;;5113387;28;20071;-69
2021/04/14 11:42:51;;;;;;;8.70;8.00;;;11.80;91.80;;;;;;5099647;28;20035;-69
2021/04/14 11:45:32;;;;;;;10.23;9.43;;;12.10;90.90;;;;;;5111502;28;20074;-69
2021/04/14 11:48:14;;;;;;;8.18;7.47;;;12.10;90.50;;;;;;5112872;28;20093;-69
2021/04/14 11:50:45;;;;;;;10.20;9.38;;;12.30;90.30;;;;;;5110966;28;20044;-69
2021/04/14 11:53:23;;;;;;;11.10;10.20;;;12.40;89.30;;;;;;5112423;28;20440;-69
2021/04/14 11:55:51;;;;;;;13.18;11.77;;;12.80;89.20;;;;;;5113713;28;20047;-69
2021/04/14 11:58:37;;;;;;;9.32;8.50;;;13.20;86.90;;;;;;5101625;28;20048;-69
2021/04/14 12:01:06;;;;;;;9.27;8.48;;;13.60;86.10;;;;;;5098889;28;20490;-69
2021/04/14 12:03:39;;;;;;;8.82;8.02;;;13.80;83.40;;;;;;5110096;28;20569;-69
2021/04/14 12:06:06;;;;;;;8.57;7.88;;;13.80;83.30;;;;;;5110751;28;20040;-69
2021/04/14 12:08:33;;;;;;;8.52;7.82;;;14.00;80.70;;;;;;5111499;28;20102;-69
2021/04/14 12:11:02;;;;;;;10.70;9.60;;;14.20;80.80;;;;;;5111628;28;20104;-69
2021/04/14 12:13:39;;;;;;;10.70;9.80;;;14.50;77.70;;;;;;5112623;28;20043;-69
2021/04/14 12:16:05;;;;;;;10.05;9.15;;;14.80;76.80;;;;;;5114874;27;20124;-68
2021/04/14 12:18:38;;;;;;;9.85;9.05;;;14.90;77.60;;;;;;5111665;28;20039;-68
2021/04/14 12:21:06;;;;;;;9.75;8.68;;;15.40;76.70;;;;;;5113612;28;20570;-68
2021/04/14 12:23:33;;;;;;;9.63;8.70;;;15.50;75.10;;;;;;5109072;28;20043;-69
2021/04/14 12:26:00;;;;;;;9.02;8.23;;;15.10;74.50;;;;;;5112747;28;20104;-68
2021/04/14 12:28:28;;;;;;;9.40;8.50;;;14.90;74.60;;;;;;5111094;28;20040;-70
2021/04/14 12:30:55;;;;;;;9.88;8.90;;;14.50;74.40;;;;;;5109777;28;20422;-70
2021/04/14 12:33:51;;;;;;;9.02;8.27;;;13.40;75.00;;;;;;5111778;28;20425;-69
2021/04/14 12:36:18;;;;;;;9.35;8.52;;;12.50;77.50;;;;;;5111319;28;20059;-70
2021/04/14 12:38:44;;;;;;;9.20;8.40;;;12.20;78.00;;;;;;5113142;28;20462;-70
2021/04/14 12:41:12;;;;;;;10.13;9.10;;;11.90;78.60;;;;;;5110839;28;20051;-70
2021/04/14 12:43:50;;;;;;;9.60;8.80;;;11.40;79.80;;;;;;5112454;28;20043;-69
2021/04/14 12:46:19;;;;;;;9.35;8.55;;;11.00;80.10;;;;;;5112582;28;20040;-69
2021/04/14 12:48:47;;;;;;;9.30;8.60;;;10.80;81.00;;;;;;5112878;28;20051;-70
2021/04/14 12:51:51;;;;;;;9.63;8.88;;;10.60;81.40;;;;;;5112051;28;20097;-69
2021/04/14 12:54:48;;;;;;;9.63;8.88;;;10.20;84.00;;;;;;5105627;28;20105;-69
2021/04/14 12:57:22;;;;;;;9.75;8.77;;;10.40;85.60;;;;;;5100940;28;20126;-70
2021/04/14 13:00:10;;;;;;;9.40;8.50;;;10.60;85.00;;;;;;5109355;28;20044;-69
2021/04/14 13:02:40;;;;;;;9.25;8.45;;;10.80;84.70;;;;;;5111810;28;20127;-70
2021/04/14 13:05:28;;;;;;;10.60;9.05;;;11.60;84.60;;;;;;5104494;28;20055;-70
2021/04/14 13:08:06;;;;;;;;;;;12.10;84.30;;;;;;5108422;28;20089;-69
2021/04/14 13:11:14;;;;;;;9.88;9.07;;;12.70;84.80;;;;;;5111424;28;20404;-69
2021/04/14 13:13:48;;;;;;;9.85;8.90;;;13.00;81.60;;;;;;5103483;28;20654;-69
2021/04/14 13:16:33;;;;;;;9.18;8.48;;;13.10;80.60;;;;;;5115316;27;20047;-69
2021/04/14 13:19:00;;;;;;;10.43;9.05;;;13.00;80.20;;;;;;5101829;28;20062;-70